sensor_id;sensor_type;location;lat;lon;timestamp;temperature;humidity
11826;DHT22;5970;48.094;11.496;2023-05-07T00:01:25;12.00;99.90
11826;DHT22;5970;48.094;11.496;2023-05-07T00:03:52;12.00;99.90
11826;DHT22;5970;48.094;11.496;2023-05-07T00:06:19;12.00;99.90
11826;DHT22;5970;48.094;11.496;2023-05-07T00:08:45;12.00;99.90
11826;DHT22;5970;48.094;11.496;2023-05-07T00:11:12;11.90;99.90
11826;DHT22;5970;48.094;11.496;2023-05-07T00:13:39;12.00;99.90
11826;DHT22;5970;48.094;11.496;2023-05-07T00:16:05;12.00;99.90
11826;DHT22;5970;48.094;11.496;2023-05-07T00:18:32;12.00;99.90
11826;DHT22;5970;48.094;11.496;2023-05-07T00:20:58;12.00;99.90
11826;DHT22;5970;48.094;11.496;2023-05-07T00:23:25;11.90;99.90
11826;DHT22;5970;48.094;11.496;2023-05-07T00:25:52;11.90;99.90
11826;DHT22;5970;48.094;11.496;2023-05-07T00:28:18;12.00;99.90
11826;DHT22;5970;48.094;11.496;2023-05-07T00:30:45;11.90;99.90
11826;DHT22;5970;48.094;11.496;2023-05-07T00:33:12;11.90;99.90
11826;DHT22;5970;48.094;11.496;2023-05-07T00:35:38;11.90;99.90
11826;DHT22;5970;48.094;11.496;2023-05-07T00:38:05;11.90;99.90
11826;DHT22;5970;48.094;11.496;2023-05-07T00:40:31;11.90;99.90
11826;DHT22;5970;48.094;11.496;2023-05-07T00:42:58;11.90;99.90
11826;DHT22;5970;48.094;11.496;2023-05-07T00:45:26;11.90;99.90
11826;DHT22;5970;48.094;11.496;2023-05-07T00:47:57;11.90;99.90
11826;DHT22;5970;48.094;11.496;2023-05-07T00:50:25;11.90;99.90
11826;DHT22;5970;48.094;11.496;2023-05-07T00:52:51;11.90;99.90
11826;DHT22;5970;48.094;11.496;2023-05-07T00:55:18;11.90;99.90
11826;DHT22;5970;48.094;11.496;2023-05-07T00:57:45;11.90;99.90
11826;DHT22;5970;48.094;11.496;2023-05-07T01:00:12;11.90;99.90
11826;DHT22;5970;48.094;11.496;2023-05-07T01:02:40;11.90;99.90
11826;DHT22;5970;48.094;11.496;2023-05-07T01:05:08;11.80;99.90
11826;DHT22;5970;48.094;11.496;2023-05-07T01:07:36;11.80;99.90
11826;DHT22;5970;48.094;11.496;2023-05-07T01:10:03;11.80;99.90
11826;DHT22;5970;48.094;11.496;2023-05-07T01:12:30;11.80;99.90
11826;DHT22;5970;48.094;11.496;2023-05-07T01:14:57;11.80;99.90
11826;DHT22;5970;48.094;11.496;2023-05-07T01:17:24;11.80;99.90
11826;DHT22;5970;48.094;11.496;2023-05-07T01:19:51;11.90;99.90
11826;DHT22;5970;48.094;11.496;2023-05-07T01:22:29;11.80;99.90
11826;DHT22;5970;48.094;11.496;2023-05-07T01:24:58;11.80;99.90
11826;DHT22;5970;48.094;11.496;2023-05-07T01:27:25;11.80;99.90
11826;DHT22;5970;48.094;11.496;2023-05-07T01:29:52;11.80;99.90
11826;DHT22;5970;48.094;11.496;2023-05-07T01:32:21;11.80;99.90
11826;DHT22;5970;48.094;11.496;2023-05-07T01:34:49;11.70;99.90
11826;DHT22;5970;48.094;11.496;2023-05-07T01:37:17;11.70;99.90
11826;DHT22;5970;48.094;11.496;2023-05-07T01:39:43;11.70;99.90
11826;DHT22;5970;48.094;11.496;2023-05-07T01:42:13;11.70;99.90
11826;DHT22;5970;48.094;11.496;2023-05-07T01:44:40;11.70;99.90
11826;DHT22;5970;48.094;11.496;2023-05-07T01:47:06;11.70;99.90
11826;DHT22;5970;48.094;11.496;2023-05-07T01:49:33;11.70;99.90
11826;DHT22;5970;48.094;11.496;2023-05-07T01:52:00;11.70;99.90
11826;DHT22;5970;48.094;11.496;2023-05-07T01:54:26;11.70;99.90
11826;DHT22;5970;48.094;11.496;2023-05-07T01:56:56;11.70;99.90
11826;DHT22;5970;48.094;11.496;2023-05-07T01:59:23;11.70;99.90
11826;DHT22;5970;48.094;11.496;2023-05-07T02:01:50;11.60;99.90
11826;DHT22;5970;48.094;11.496;2023-05-07T02:04:17;11.70;99.90
11826;DHT22;5970;48.094;11.496;2023-05-07T02:06:43;11.70;99.90
11826;DHT22;5970;48.094;11.496;2023-05-07T02:09:10;11.60;99.90
11826;DHT22;5970;48.094;11.496;2023-05-07T02:11:37;11.60;99.90
11826;DHT22;5970;48.094;11.496;2023-05-07T02:14:04;11.50;99.90
11826;DHT22;5970;48.094;11.496;2023-05-07T02:16:30;11.50;99.90
11826;DHT22;5970;48.094;11.496;2023-05-07T02:18:57;11.50;99.90
11826;DHT22;5970;48.094;11.496;2023-05-07T02:21:24;11.50;99.90
11826;DHT22;5970;48.094;11.496;2023-05-07T02:23:51;11.50;99.90
11826;DHT22;5970;48.094;11.496;2023-05-07T02:26:18;11.50;99.90
11826;DHT22;5970;48.094;11.496;2023-05-07T02:28:45;11.40;99.90
11826;DHT22;5970;48.094;11.496;2023-05-07T02:31:12;11.40;99.90
11826;DHT22;5970;48.094;11.496;2023-05-07T02:33:38;11.40;99.90
11826;DHT22;5970;48.094;11.496;2023-05-07T02:36:06;11.40;99.90
11826;DHT22;5970;48.094;11.496;2023-05-07T02:38:33;11.40;99.90
11826;DHT22;5970;48.094;11.496;2023-05-07T02:40:59;11.40;99.90
11826;DHT22;5970;48.094;11.496;2023-05-07T02:43:26;11.30;99.90
11826;DHT22;5970;48.094;11.496;2023-05-07T02:46:00;11.30;99.90
11826;DHT22;5970;48.094;11.496;2023-05-07T02:48:26;11.30;99.90
11826;DHT22;5970;48.094;11.496;2023-05-07T02:50:53;11.30;99.90
11826;DHT22;5970;48.094;11.496;2023-05-07T02:53:19;11.30;99.90
11826;DHT22;5970;48.094;11.496;2023-05-07T02:55:46;11.30;99.90
11826;DHT22;5970;48.094;11.496;2023-05-07T02:58:13;11.30;99.90
11826;DHT22;5970;48.094;11.496;2023-05-07T03:00:39;11.30;99.90
11826;DHT22;5970;48.094;11.496;2023-05-07T03:03:06;11.20;99.90
11826;DHT22;5970;48.094;11.496;2023-05-07T03:05:33;11.20;99.90
11826;DHT22;5970;48.094;11.496;2023-05-07T03:07:59;11.20;99.90
11826;DHT22;5970;48.094;11.496;2023-05-07T03:10:26;11.10;99.90
11826;DHT22;5970;48.094;11.496;2023-05-07T03:12:53;11.10;99.90
11826;DHT22;5970;48.094;11.496;2023-05-07T03:15:19;11.10;99.90
11826;DHT22;5970;48.094;11.496;2023-05-07T03:17:46;11.10;99.90
11826;DHT22;5970;48.094;11.496;2023-05-07T03:20:12;11.10;99.90
11826;DHT22;5970;48.094;11.496;2023-05-07T03:22:40;11.00;99.90
11826;DHT22;5970;48.094;11.496;2023-05-07T03:25:06;11.00;99.90
11826;DHT22;5970;48.094;11.496;2023-05-07T03:27:33;11.00;99.90
11826;DHT22;5970;48.094;11.496;2023-05-07T03:30:00;11.00;99.90
11826;DHT22;5970;48.094;11.496;2023-05-07T03:32:26;11.00;99.90
11826;DHT22;5970;48.094;11.496;2023-05-07T03:34:53;10.90;99.90
11826;DHT22;5970;48.094;11.496;2023-05-07T03:37:20;10.90;99.90
11826;DHT22;5970;48.094;11.496;2023-05-07T03:39:48;10.90;99.90
11826;DHT22;5970;48.094;11.496;2023-05-07T03:42:14;10.90;99.90
11826;DHT22;5970;48.094;11.496;2023-05-07T03:44:41;11.00;99.90
11826;DHT22;5970;48.094;11.496;2023-05-07T03:47:07;11.00;99.90
11826;DHT22;5970;48.094;11.496;2023-05-07T03:49:34;11.00;99.90
11826;DHT22;5970;48.094;11.496;2023-05-07T03:52:01;10.90;99.90
11826;DHT22;5970;48.094;11.496;2023-05-07T03:54:27;10.90;99.90
11826;DHT22;5970;48.094;11.496;2023-05-07T03:56:54;10.90;99.90
11826;DHT22;5970;48.094;11.496;2023-05-07T03:59:21;10.80;99.90
11826;DHT22;5970;48.094;11.496;2023-05-07T04:01:48;10.80;99.90
11826;DHT22;5970;48.094;11.496;2023-05-07T04:04:15;10.80;99.90
11826;DHT22;5970;48.094;11.496;2023-05-07T04:06:42;10.80;99.90
11826;DHT22;5970;48.094;11.496;2023-05-07T04:09:09;10.70;99.90
11826;DHT22;5970;48.094;11.496;2023-05-07T04:11:35;10.70;99.90
11826;DHT22;5970;48.094;11.496;2023-05-07T04:14:02;10.70;99.90
11826;DHT22;5970;48.094;11.496;2023-05-07T04:16:28;10.70;99.90
11826;DHT22;5970;48.094;11.496;2023-05-07T04:18:55;10.70;99.90
11826;DHT22;5970;48.094;11.496;2023-05-07T04:21:22;10.70;99.90
11826;DHT22;5970;48.094;11.496;2023-05-07T04:23:49;10.70;99.90
11826;DHT22;5970;48.094;11.496;2023-05-07T04:26:15;10.70;99.90
11826;DHT22;5970;48.094;11.496;2023-05-07T04:28:42;10.70;99.90
11826;DHT22;5970;48.094;11.496;2023-05-07T04:31:09;10.70;99.90
11826;DHT22;5970;48.094;11.496;2023-05-07T04:33:35;10.70;99.90
11826;DHT22;5970;48.094;11.496;2023-05-07T04:36:02;10.80;99.90
11826;DHT22;5970;48.094;11.496;2023-05-07T04:38:29;10.80;99.90
11826;DHT22;5970;48.094;11.496;2023-05-07T04:40:57;10.80;99.90
11826;DHT22;5970;48.094;11.496;2023-05-07T04:43:24;10.90;99.90
11826;DHT22;5970;48.094;11.496;2023-05-07T04:45:51;10.90;99.90
11826;DHT22;5970;48.094;11.496;2023-05-07T04:48:18;10.90;99.90
11826;DHT22;5970;48.094;11.496;2023-05-07T04:50:47;10.90;99.90
11826;DHT22;5970;48.094;11.496;2023-05-07T04:53:13;11.00;99.90
11826;DHT22;5970;48.094;11.496;2023-05-07T04:55:40;11.00;99.90
11826;DHT22;5970;48.094;11.496;2023-05-07T04:58:07;11.00;99.90
11826;DHT22;5970;48.094;11.496;2023-05-07T05:00:34;11.00;99.90
11826;DHT22;5970;48.094;11.496;2023-05-07T05:03:00;11.10;99.90
11826;DHT22;5970;48.094;11.496;2023-05-07T05:05:27;11.20;99.90
11826;DHT22;5970;48.094;11.496;2023-05-07T05:07:54;11.20;99.90
11826;DHT22;5970;48.094;11.496;2023-05-07T05:10:21;11.20;99.90
11826;DHT22;5970;48.094;11.496;2023-05-07T05:12:50;11.30;99.90
11826;DHT22;5970;48.094;11.496;2023-05-07T05:15:17;11.30;99.90
11826;DHT22;5970;48.094;11.496;2023-05-07T05:17:43;11.40;99.90
11826;DHT22;5970;48.094;11.496;2023-05-07T05:20:10;11.40;99.90
11826;DHT22;5970;48.094;11.496;2023-05-07T05:22:38;11.50;99.90
11826;DHT22;5970;48.094;11.496;2023-05-07T05:25:05;11.60;99.90
11826;DHT22;5970;48.094;11.496;2023-05-07T05:27:32;11.70;99.90
11826;DHT22;5970;48.094;11.496;2023-05-07T05:29:58;11.80;99.90
11826;DHT22;5970;48.094;11.496;2023-05-07T05:32:25;11.80;99.90
11826;DHT22;5970;48.094;11.496;2023-05-07T05:34:52;12.00;99.90
11826;DHT22;5970;48.094;11.496;2023-05-07T05:37:18;12.10;99.90
11826;DHT22;5970;48.094;11.496;2023-05-07T05:39:45;12.20;99.90
11826;DHT22;5970;48.094;11.496;2023-05-07T05:42:12;12.30;99.90
11826;DHT22;5970;48.094;11.496;2023-05-07T05:44:38;12.50;99.90
11826;DHT22;5970;48.094;11.496;2023-05-07T05:47:05;12.60;99.90
11826;DHT22;5970;48.094;11.496;2023-05-07T05:49:31;12.70;99.90
11826;DHT22;5970;48.094;11.496;2023-05-07T05:51:58;12.80;99.90
11826;DHT22;5970;48.094;11.496;2023-05-07T05:54:25;13.00;99.90
11826;DHT22;5970;48.094;11.496;2023-05-07T05:56:52;13.10;99.90
11826;DHT22;5970;48.094;11.496;2023-05-07T05:59:18;13.30;99.90
11826;DHT22;5970;48.094;11.496;2023-05-07T06:01:45;13.40;99.90
11826;DHT22;5970;48.094;11.496;2023-05-07T06:04:11;13.60;99.90
11826;DHT22;5970;48.094;11.496;2023-05-07T06:06:38;13.80;99.90
11826;DHT22;5970;48.094;11.496;2023-05-07T06:09:05;14.00;99.90
11826;DHT22;5970;48.094;11.496;2023-05-07T06:11:31;14.10;99.90
11826;DHT22;5970;48.094;11.496;2023-05-07T06:13:58;14.30;99.90
11826;DHT22;5970;48.094;11.496;2023-05-07T06:16:25;14.50;99.90
11826;DHT22;5970;48.094;11.496;2023-05-07T06:18:52;14.70;99.90
11826;DHT22;5970;48.094;11.496;2023-05-07T06:21:18;14.80;99.90
11826;DHT22;5970;48.094;11.496;2023-05-07T06:23:45;15.00;99.90
11826;DHT22;5970;48.094;11.496;2023-05-07T06:26:11;15.10;99.90
11826;DHT22;5970;48.094;11.496;2023-05-07T06:28:38;15.30;99.90
11826;DHT22;5970;48.094;11.496;2023-05-07T06:31:18;15.50;99.90
11826;DHT22;5970;48.094;11.496;2023-05-07T06:33:48;15.60;99.90
11826;DHT22;5970;48.094;11.496;2023-05-07T06:36:15;15.80;99.90
11826;DHT22;5970;48.094;11.496;2023-05-07T06:38:42;16.00;99.90
11826;DHT22;5970;48.094;11.496;2023-05-07T06:41:08;16.10;99.90
11826;DHT22;5970;48.094;11.496;2023-05-07T06:43:35;16.20;99.90
11826;DHT22;5970;48.094;11.496;2023-05-07T06:46:02;16.30;99.90
11826;DHT22;5970;48.094;11.496;2023-05-07T06:48:28;16.50;99.90
11826;DHT22;5970;48.094;11.496;2023-05-07T06:50:55;16.60;99.90
11826;DHT22;5970;48.094;11.496;2023-05-07T06:53:24;16.70;99.90
11826;DHT22;5970;48.094;11.496;2023-05-07T06:55:50;16.90;99.90
11826;DHT22;5970;48.094;11.496;2023-05-07T06:58:18;17.00;99.90
11826;DHT22;5970;48.094;11.496;2023-05-07T07:00:45;17.20;99.90
11826;DHT22;5970;48.094;11.496;2023-05-07T07:03:12;17.20;99.90
11826;DHT22;5970;48.094;11.496;2023-05-07T07:05:40;17.20;99.90
11826;DHT22;5970;48.094;11.496;2023-05-07T07:08:06;17.50;99.90
11826;DHT22;5970;48.094;11.496;2023-05-07T07:10:33;17.60;99.90
11826;DHT22;5970;48.094;11.496;2023-05-07T07:13:00;17.80;99.90
11826;DHT22;5970;48.094;11.496;2023-05-07T07:15:26;17.90;99.90
11826;DHT22;5970;48.094;11.496;2023-05-07T07:17:53;18.10;99.90
11826;DHT22;5970;48.094;11.496;2023-05-07T07:20:19;18.10;99.90
11826;DHT22;5970;48.094;11.496;2023-05-07T07:22:46;18.30;99.90
11826;DHT22;5970;48.094;11.496;2023-05-07T07:25:13;18.40;99.90
11826;DHT22;5970;48.094;11.496;2023-05-07T07:27:39;18.50;99.90
11826;DHT22;5970;48.094;11.496;2023-05-07T07:30:06;18.50;99.90
11826;DHT22;5970;48.094;11.496;2023-05-07T07:32:33;18.70;99.90
11826;DHT22;5970;48.094;11.496;2023-05-07T07:35:00;18.80;99.90
11826;DHT22;5970;48.094;11.496;2023-05-07T07:37:27;18.90;99.90
11826;DHT22;5970;48.094;11.496;2023-05-07T07:39:54;19.00;99.90
11826;DHT22;5970;48.094;11.496;2023-05-07T07:42:21;19.40;99.90
11826;DHT22;5970;48.094;11.496;2023-05-07T07:44:48;19.80;99.90
11826;DHT22;5970;48.094;11.496;2023-05-07T07:47:14;20.60;98.80
11826;DHT22;5970;48.094;11.496;2023-05-07T07:49:41;21.00;98.60
11826;DHT22;5970;48.094;11.496;2023-05-07T07:52:08;21.70;97.30
11826;DHT22;5970;48.094;11.496;2023-05-07T07:54:34;22.60;96.00
11826;DHT22;5970;48.094;11.496;2023-05-07T07:57:01;23.10;95.70
11826;DHT22;5970;48.094;11.496;2023-05-07T07:59:27;23.60;94.30
11826;DHT22;5970;48.094;11.496;2023-05-07T08:01:56;24.10;93.60
11826;DHT22;5970;48.094;11.496;2023-05-07T08:04:23;24.60;92.60
11826;DHT22;5970;48.094;11.496;2023-05-07T08:06:50;24.60;91.20
11826;DHT22;5970;48.094;11.496;2023-05-07T08:09:16;24.80;91.00
11826;DHT22;5970;48.094;11.496;2023-05-07T08:11:43;24.60;91.00
11826;DHT22;5970;48.094;11.496;2023-05-07T08:14:10;24.80;90.90
11826;DHT22;5970;48.094;11.496;2023-05-07T08:16:36;25.20;90.50
11826;DHT22;5970;48.094;11.496;2023-05-07T08:19:03;25.40;89.50
11826;DHT22;5970;48.094;11.496;2023-05-07T08:21:29;25.70;87.90
11826;DHT22;5970;48.094;11.496;2023-05-07T08:23:59;26.00;87.90
11826;DHT22;5970;48.094;11.496;2023-05-07T08:26:26;26.40;86.10
11826;DHT22;5970;48.094;11.496;2023-05-07T08:28:53;26.40;85.60
11826;DHT22;5970;48.094;11.496;2023-05-07T08:31:19;26.80;84.20
11826;DHT22;5970;48.094;11.496;2023-05-07T08:33:46;27.20;81.80
11826;DHT22;5970;48.094;11.496;2023-05-07T08:36:13;27.40;80.50
11826;DHT22;5970;48.094;11.496;2023-05-07T08:38:39;27.20;78.50
11826;DHT22;5970;48.094;11.496;2023-05-07T08:41:11;27.20;79.80
11826;DHT22;5970;48.094;11.496;2023-05-07T08:43:38;27.50;78.60
11826;DHT22;5970;48.094;11.496;2023-05-07T08:46:08;27.60;77.40
11826;DHT22;5970;48.094;11.496;2023-05-07T08:48:36;27.80;75.40
11826;DHT22;5970;48.094;11.496;2023-05-07T08:51:03;27.80;75.70
11826;DHT22;5970;48.094;11.496;2023-05-07T08:53:29;27.90;75.90
11826;DHT22;5970;48.094;11.496;2023-05-07T08:55:56;28.10;73.70
11826;DHT22;5970;48.094;11.496;2023-05-07T08:58:23;28.10;74.80
11826;DHT22;5970;48.094;11.496;2023-05-07T09:00:49;28.30;74.80
11826;DHT22;5970;48.094;11.496;2023-05-07T09:03:18;28.50;74.60
11826;DHT22;5970;48.094;11.496;2023-05-07T09:05:44;28.70;72.00
11826;DHT22;5970;48.094;11.496;2023-05-07T09:08:14;28.90;73.00
11826;DHT22;5970;48.094;11.496;2023-05-07T09:10:41;28.80;69.30
11826;DHT22;5970;48.094;11.496;2023-05-07T09:13:07;28.80;70.50
11826;DHT22;5970;48.094;11.496;2023-05-07T09:15:34;29.00;68.80
11826;DHT22;5970;48.094;11.496;2023-05-07T09:18:01;29.20;69.90
11826;DHT22;5970;48.094;11.496;2023-05-07T09:20:29;29.20;68.70
11826;DHT22;5970;48.094;11.496;2023-05-07T09:22:56;29.10;65.00
11826;DHT22;5970;48.094;11.496;2023-05-07T09:25:30;28.90;67.30
11826;DHT22;5970;48.094;11.496;2023-05-07T09:27:57;28.80;68.00
11826;DHT22;5970;48.094;11.496;2023-05-07T09:30:26;29.00;67.40
11826;DHT22;5970;48.094;11.496;2023-05-07T09:32:53;28.60;66.70
11826;DHT22;5970;48.094;11.496;2023-05-07T09:35:20;28.50;67.80
11826;DHT22;5970;48.094;11.496;2023-05-07T09:37:48;28.80;67.40
11826;DHT22;5970;48.094;11.496;2023-05-07T09:40:24;28.80;65.80
11826;DHT22;5970;48.094;11.496;2023-05-07T09:42:51;28.70;66.20
11826;DHT22;5970;48.094;11.496;2023-05-07T09:45:24;29.40;67.20
11826;DHT22;5970;48.094;11.496;2023-05-07T09:47:53;29.70;65.10
11826;DHT22;5970;48.094;11.496;2023-05-07T09:50:28;30.20;63.00
11826;DHT22;5970;48.094;11.496;2023-05-07T09:52:55;30.50;60.90
11826;DHT22;5970;48.094;11.496;2023-05-07T09:55:22;30.70;61.00
11826;DHT22;5970;48.094;11.496;2023-05-07T09:57:53;30.90;59.80
11826;DHT22;5970;48.094;11.496;2023-05-07T10:00:20;30.90;59.90
11826;DHT22;5970;48.094;11.496;2023-05-07T10:02:48;30.60;59.30
11826;DHT22;5970;48.094;11.496;2023-05-07T10:05:15;30.90;60.00
11826;DHT22;5970;48.094;11.496;2023-05-07T10:07:43;30.70;59.00
11826;DHT22;5970;48.094;11.496;2023-05-07T10:10:09;30.90;59.00
11826;DHT22;5970;48.094;11.496;2023-05-07T10:12:36;30.60;59.30
11826;DHT22;5970;48.094;11.496;2023-05-07T10:15:09;30.50;58.90
11826;DHT22;5970;48.094;11.496;2023-05-07T10:17:37;30.50;58.90
11826;DHT22;5970;48.094;11.496;2023-05-07T10:20:05;30.70;58.50
11826;DHT22;5970;48.094;11.496;2023-05-07T10:22:51;30.70;58.50
11826;DHT22;5970;48.094;11.496;2023-05-07T10:25:28;30.60;59.70
11826;DHT22;5970;48.094;11.496;2023-05-07T10:27:57;29.80;58.10
11826;DHT22;5970;48.094;11.496;2023-05-07T10:30:35;30.00;59.20
11826;DHT22;5970;48.094;11.496;2023-05-07T10:33:04;30.40;58.40
11826;DHT22;5970;48.094;11.496;2023-05-07T10:35:38;30.90;58.70
11826;DHT22;5970;48.094;11.496;2023-05-07T10:38:05;31.30;58.40
11826;DHT22;5970;48.094;11.496;2023-05-07T10:40:32;31.20;59.30
11826;DHT22;5970;48.094;11.496;2023-05-07T10:42:59;30.90;56.70
11826;DHT22;5970;48.094;11.496;2023-05-07T10:45:27;30.80;58.30
11826;DHT22;5970;48.094;11.496;2023-05-07T10:48:12;30.60;57.20
11826;DHT22;5970;48.094;11.496;2023-05-07T10:53:40;30.60;57.70
11826;DHT22;5970;48.094;11.496;2023-05-07T10:58:43;30.60;56.40
11826;DHT22;5970;48.094;11.496;2023-05-07T11:01:09;30.10;57.30
11826;DHT22;5970;48.094;11.496;2023-05-07T11:04:12;29.50;58.00
11826;DHT22;5970;48.094;11.496;2023-05-07T11:06:26;29.20;58.50
11826;DHT22;5970;48.094;11.496;2023-05-07T11:11:54;28.60;60.50
11826;DHT22;5970;48.094;11.496;2023-05-07T11:14:14;28.50;60.10
11826;DHT22;5970;48.094;11.496;2023-05-07T11:17:02;28.50;59.60
11826;DHT22;5970;48.094;11.496;2023-05-07T11:19:51;28.70;60.00
11826;DHT22;5970;48.094;11.496;2023-05-07T11:25:04;30.40;58.30
11826;DHT22;5970;48.094;11.496;2023-05-07T11:27:32;30.80;56.60
11826;DHT22;5970;48.094;11.496;2023-05-07T11:29:59;31.50;55.90
11826;DHT22;5970;48.094;11.496;2023-05-07T11:32:28;31.80;55.10
11826;DHT22;5970;48.094;11.496;2023-05-07T11:34:57;32.40;54.80
11826;DHT22;5970;48.094;11.496;2023-05-07T11:37:24;32.20;54.70
11826;DHT22;5970;48.094;11.496;2023-05-07T11:39:51;32.10;54.40
11826;DHT22;5970;48.094;11.496;2023-05-07T11:42:28;32.20;53.90
11826;DHT22;5970;48.094;11.496;2023-05-07T11:44:55;31.40;54.60
11826;DHT22;5970;48.094;11.496;2023-05-07T11:47:22;31.00;54.20
11826;DHT22;5970;48.094;11.496;2023-05-07T11:49:49;31.00;54.90
11826;DHT22;5970;48.094;11.496;2023-05-07T11:52:16;30.30;56.00
11826;DHT22;5970;48.094;11.496;2023-05-07T11:54:48;30.30;58.10
11826;DHT22;5970;48.094;11.496;2023-05-07T11:57:15;30.30;58.10
11826;DHT22;5970;48.094;11.496;2023-05-07T11:59:42;29.60;58.40
11826;DHT22;5970;48.094;11.496;2023-05-07T12:02:10;29.50;59.10
11826;DHT22;5970;48.094;11.496;2023-05-07T12:04:39;29.40;59.70
11826;DHT22;5970;48.094;11.496;2023-05-07T12:07:11;29.70;59.60
11826;DHT22;5970;48.094;11.496;2023-05-07T12:09:37;29.70;59.10
11826;DHT22;5970;48.094;11.496;2023-05-07T12:12:04;30.20;60.10
11826;DHT22;5970;48.094;11.496;2023-05-07T12:14:31;30.00;58.20
11826;DHT22;5970;48.094;11.496;2023-05-07T12:17:00;30.30;59.10
11826;DHT22;5970;48.094;11.496;2023-05-07T12:19:30;30.60;57.50
11826;DHT22;5970;48.094;11.496;2023-05-07T12:21:56;30.90;56.90
11826;DHT22;5970;48.094;11.496;2023-05-07T12:24:23;30.50;56.50
11826;DHT22;5970;48.094;11.496;2023-05-07T12:26:50;30.70;58.00
11826;DHT22;5970;48.094;11.496;2023-05-07T12:29:16;31.30;58.10
11826;DHT22;5970;48.094;11.496;2023-05-07T12:31:43;30.70;57.40
11826;DHT22;5970;48.094;11.496;2023-05-07T12:34:10;30.20;57.20
11826;DHT22;5970;48.094;11.496;2023-05-07T12:36:37;30.10;58.00
11826;DHT22;5970;48.094;11.496;2023-05-07T12:39:05;29.70;57.50
11826;DHT22;5970;48.094;11.496;2023-05-07T12:41:35;29.60;59.50
11826;DHT22;5970;48.094;11.496;2023-05-07T12:44:04;29.40;58.20
11826;DHT22;5970;48.094;11.496;2023-05-07T12:46:30;29.10;59.10
11826;DHT22;5970;48.094;11.496;2023-05-07T12:48:57;29.00;59.30
11826;DHT22;5970;48.094;11.496;2023-05-07T12:51:24;28.90;59.80
11826;DHT22;5970;48.094;11.496;2023-05-07T12:53:51;28.80;61.00
11826;DHT22;5970;48.094;11.496;2023-05-07T12:56:22;28.70;59.80
11826;DHT22;5970;48.094;11.496;2023-05-07T12:58:49;28.70;59.90
11826;DHT22;5970;48.094;11.496;2023-05-07T13:01:16;29.20;59.70
11826;DHT22;5970;48.094;11.496;2023-05-07T13:03:48;29.10;58.10
11826;DHT22;5970;48.094;11.496;2023-05-07T13:06:15;28.80;58.80
11826;DHT22;5970;48.094;11.496;2023-05-07T13:08:41;28.90;58.80
11826;DHT22;5970;48.094;11.496;2023-05-07T13:11:11;28.80;58.80
11826;DHT22;5970;48.094;11.496;2023-05-07T13:13:39;29.20;59.00
11826;DHT22;5970;48.094;11.496;2023-05-07T13:16:07;29.00;57.70
11826;DHT22;5970;48.094;11.496;2023-05-07T13:18:34;29.20;58.10
11826;DHT22;5970;48.094;11.496;2023-05-07T13:21:01;29.70;57.90
11826;DHT22;5970;48.094;11.496;2023-05-07T13:23:28;30.30;56.60
11826;DHT22;5970;48.094;11.496;2023-05-07T13:25:54;31.00;55.40
11826;DHT22;5970;48.094;11.496;2023-05-07T13:28:25;31.60;54.30
11826;DHT22;5970;48.094;11.496;2023-05-07T13:30:52;31.90;54.10
11826;DHT22;5970;48.094;11.496;2023-05-07T13:33:19;31.40;54.00
11826;DHT22;5970;48.094;11.496;2023-05-07T13:35:46;31.60;53.80
11826;DHT22;5970;48.094;11.496;2023-05-07T13:38:12;31.90;53.80
11826;DHT22;5970;48.094;11.496;2023-05-07T13:40:39;31.90;52.70
11826;DHT22;5970;48.094;11.496;2023-05-07T13:43:06;31.70;52.40
11826;DHT22;5970;48.094;11.496;2023-05-07T13:45:32;32.00;52.00
11826;DHT22;5970;48.094;11.496;2023-05-07T13:47:59;31.70;52.20
11826;DHT22;5970;48.094;11.496;2023-05-07T13:50:26;31.40;52.40
11826;DHT22;5970;48.094;11.496;2023-05-07T13:52:56;30.90;53.10
11826;DHT22;5970;48.094;11.496;2023-05-07T13:55:23;30.70;52.30
11826;DHT22;5970;48.094;11.496;2023-05-07T13:57:59;30.80;52.50
11826;DHT22;5970;48.094;11.496;2023-05-07T14:00:27;31.70;52.30
11826;DHT22;5970;48.094;11.496;2023-05-07T14:02:54;32.20;51.80
11826;DHT22;5970;48.094;11.496;2023-05-07T14:05:21;32.60;49.50
11826;DHT22;5970;48.094;11.496;2023-05-07T14:07:50;32.00;50.00
11826;DHT22;5970;48.094;11.496;2023-05-07T14:10:18;31.40;49.40
11826;DHT22;5970;48.094;11.496;2023-05-07T14:12:45;31.20;50.80
11826;DHT22;5970;48.094;11.496;2023-05-07T14:15:12;29.60;52.80
11826;DHT22;5970;48.094;11.496;2023-05-07T14:17:39;29.50;53.00
11826;DHT22;5970;48.094;11.496;2023-05-07T14:20:05;29.30;54.40
11826;DHT22;5970;48.094;11.496;2023-05-07T14:22:33;28.50;53.80
11826;DHT22;5970;48.094;11.496;2023-05-07T14:24:59;28.20;56.00
11826;DHT22;5970;48.094;11.496;2023-05-07T14:27:39;27.30;55.90
11826;DHT22;5970;48.094;11.496;2023-05-07T14:30:06;27.00;57.30
11826;DHT22;5970;48.094;11.496;2023-05-07T14:32:33;26.50;58.10
11826;DHT22;5970;48.094;11.496;2023-05-07T14:35:00;26.20;57.20
11826;DHT22;5970;48.094;11.496;2023-05-07T14:37:27;25.90;58.60
11826;DHT22;5970;48.094;11.496;2023-05-07T14:39:53;26.00;60.40
11826;DHT22;5970;48.094;11.496;2023-05-07T14:42:20;26.30;59.70
11826;DHT22;5970;48.094;11.496;2023-05-07T14:44:46;26.80;58.90
11826;DHT22;5970;48.094;11.496;2023-05-07T14:47:14;27.10;58.40
11826;DHT22;5970;48.094;11.496;2023-05-07T14:49:45;27.00;57.60
11826;DHT22;5970;48.094;11.496;2023-05-07T14:52:11;26.80;58.70
11826;DHT22;5970;48.094;11.496;2023-05-07T14:54:38;26.70;59.90
11826;DHT22;5970;48.094;11.496;2023-05-07T14:57:05;26.40;59.90
11826;DHT22;5970;48.094;11.496;2023-05-07T14:59:32;26.40;60.00
11826;DHT22;5970;48.094;11.496;2023-05-07T15:01:59;26.00;59.70
11826;DHT22;5970;48.094;11.496;2023-05-07T15:04:26;25.50;61.10
11826;DHT22;5970;48.094;11.496;2023-05-07T15:06:52;25.30;61.60
11826;DHT22;5970;48.094;11.496;2023-05-07T15:09:20;25.10;62.30
11826;DHT22;5970;48.094;11.496;2023-05-07T15:11:47;24.80;62.70
11826;DHT22;5970;48.094;11.496;2023-05-07T15:14:13;24.70;63.50
11826;DHT22;5970;48.094;11.496;2023-05-07T15:16:40;24.60;64.00
11826;DHT22;5970;48.094;11.496;2023-05-07T15:19:06;24.60;64.50
11826;DHT22;5970;48.094;11.496;2023-05-07T15:21:33;24.40;65.90
11826;DHT22;5970;48.094;11.496;2023-05-07T15:24:01;24.40;67.00
11826;DHT22;5970;48.094;11.496;2023-05-07T15:26:28;24.30;66.80
11826;DHT22;5970;48.094;11.496;2023-05-07T15:28:55;24.00;67.00
11826;DHT22;5970;48.094;11.496;2023-05-07T15:31:24;23.90;68.10
11826;DHT22;5970;48.094;11.496;2023-05-07T15:33:51;23.90;68.40
11826;DHT22;5970;48.094;11.496;2023-05-07T15:36:19;23.80;68.20
11826;DHT22;5970;48.094;11.496;2023-05-07T15:38:46;23.60;69.90
11826;DHT22;5970;48.094;11.496;2023-05-07T15:41:12;23.50;69.10
11826;DHT22;5970;48.094;11.496;2023-05-07T15:43:46;23.50;69.50